createdAt,value
2023-04-30T00:01:17.724Z,19.20
2023-04-30T00:03:50.091Z,14.50
2023-04-30T00:06:22.489Z,10.50
2023-04-30T00:08:54.755Z,16.80
2023-04-30T00:11:27.057Z,14.80
2023-04-30T00:13:59.503Z,12.00
2023-04-30T00:16:31.830Z,16.80
2023-04-30T00:19:04.077Z,15.20
2023-04-30T00:21:36.828Z,19.50
2023-04-30T00:24:09.526Z,18.90
2023-04-30T00:26:42.808Z,20.20
2023-04-30T00:29:15.209Z,16.10
2023-04-30T00:31:47.422Z,11.50
2023-04-30T00:34:19.689Z,14.50
2023-04-30T00:36:51.981Z,15.60
2023-04-30T00:39:24.353Z,17.40
2023-04-30T00:41:56.710Z,17.40
2023-04-30T00:44:29.013Z,16.70
2023-04-30T00:47:01.379Z,22.90
2023-04-30T00:49:33.643Z,16.30
2023-04-30T00:52:06.579Z,16.80
2023-04-30T00:54:39.035Z,18.90
2023-04-30T00:57:14.019Z,21.10
2023-04-30T00:59:47.194Z,26.80
2023-04-30T01:02:20.147Z,19.20
2023-04-30T01:04:54.093Z,21.60
2023-04-30T01:07:28.454Z,20.80
2023-04-30T01:10:00.923Z,19.80
2023-04-30T01:12:40.816Z,20.50
2023-04-30T01:15:20.557Z,20.60
2023-04-30T01:17:58.474Z,15.10
2023-04-30T01:20:33.502Z,17.90
2023-04-30T01:23:20.356Z,14.70
2023-04-30T01:26:06.432Z,14.10
2023-04-30T01:28:39.621Z,18.10
2023-04-30T01:31:16.878Z,19.70
2023-04-30T01:33:49.217Z,15.50
2023-04-30T01:36:36.698Z,17.80
2023-04-30T01:39:24.422Z,16.80
2023-04-30T01:42:07.708Z,18.80
2023-04-30T01:44:56.957Z,17.40
2023-04-30T01:47:35.506Z,19.20
2023-04-30T01:50:21.885Z,17.10
2023-04-30T01:55:36.411Z,18.90
2023-04-30T01:58:12.506Z,18.60
2023-04-30T02:00:44.851Z,25.80
2023-04-30T02:03:17.215Z,22.10
2023-04-30T02:05:50.213Z,29.60
2023-04-30T02:08:22.464Z,18.40
2023-04-30T02:10:54.839Z,19.50
2023-04-30T02:13:27.087Z,19.20
2023-04-30T02:15:59.446Z,22.00
2023-04-30T02:18:31.825Z,22.10
2023-04-30T02:21:04.171Z,20.50
2023-04-30T02:23:36.621Z,23.60
2023-04-30T02:26:09.083Z,20.40
2023-04-30T02:28:41.323Z,24.20
2023-04-30T02:31:13.905Z,23.20
2023-04-30T02:33:46.371Z,31.30
2023-04-30T02:36:18.717Z,25.90
2023-04-30T02:38:50.904Z,22.30
2023-04-30T02:41:23.398Z,23.70
2023-04-30T02:43:55.894Z,20.80
2023-04-30T02:46:28.105Z,29.70
2023-04-30T02:49:00.406Z,29.10
2023-04-30T02:51:32.806Z,24.60
2023-04-30T02:54:05.310Z,22.70
2023-04-30T02:56:38.933Z,21.60
2023-04-30T02:59:11.323Z,27.40
2023-04-30T03:01:43.748Z,28.70
2023-04-30T03:04:16.386Z,24.50
2023-04-30T03:06:48.651Z,29.70
2023-04-30T03:09:22.584Z,23.70
2023-04-30T03:11:54.939Z,29.60
2023-04-30T03:14:27.241Z,23.20
2023-04-30T03:16:59.610Z,24.70
2023-04-30T03:19:31.938Z,29.00
2023-04-30T03:22:04.221Z,28.10
2023-04-30T03:24:36.589Z,26.90
2023-04-30T03:27:08.914Z,25.10
2023-04-30T03:29:41.093Z,30.70
2023-04-30T03:32:13.355Z,26.00
2023-04-30T03:34:46.362Z,27.40
2023-04-30T03:37:18.797Z,27.00
2023-04-30T03:39:51.179Z,30.90
2023-04-30T03:42:23.601Z,28.20
2023-04-30T03:44:55.860Z,29.00
2023-04-30T03:47:28.318Z,26.70
2023-04-30T03:50:00.684Z,26.40
2023-04-30T03:52:33.911Z,42.40
2023-04-30T03:55:06.610Z,29.60
2023-04-30T03:57:39.235Z,27.20
2023-04-30T04:00:13.510Z,28.80
2023-04-30T04:02:46.130Z,26.30
2023-04-30T04:05:18.536Z,29.80
2023-04-30T04:07:50.933Z,25.20
2023-04-30T04:10:23.374Z,25.20
2023-04-30T04:12:55.842Z,25.20
2023-04-30T04:15:28.328Z,22.50
2023-04-30T04:18:00.758Z,23.40
2023-04-30T04:20:33.080Z,26.90
2023-04-30T04:23:05.336Z,24.30
2023-04-30T04:25:39.548Z,23.40
2023-04-30T04:28:11.834Z,25.60
2023-04-30T04:30:44.135Z,22.60
2023-04-30T04:33:16.378Z,23.70
2023-04-30T04:35:48.894Z,21.90
2023-04-30T04:38:21.473Z,22.10
2023-04-30T04:40:57.587Z,25.20
2023-04-30T04:43:29.960Z,26.00
2023-04-30T04:46:03.250Z,32.90
2023-04-30T04:48:35.622Z,38.00
2023-04-30T04:51:08.463Z,28.70
2023-04-30T04:53:40.713Z,27.10
2023-04-30T04:56:13.048Z,28.10
2023-04-30T04:58:46.532Z,24.10
2023-04-30T05:01:18.858Z,39.40
2023-04-30T05:03:51.262Z,29.00
2023-04-30T05:06:23.854Z,27.60
2023-04-30T05:08:56.119Z,30.00
2023-04-30T05:11:28.547Z,24.50
2023-04-30T05:14:00.839Z,36.90
2023-04-30T05:16:33.357Z,29.70
2023-04-30T05:19:05.726Z,29.00
2023-04-30T05:21:38.144Z,25.40
2023-04-30T05:24:10.695Z,36.50
2023-04-30T05:26:43.090Z,25.80
2023-04-30T05:29:15.308Z,28.40
2023-04-30T05:31:47.655Z,28.90
2023-04-30T05:34:19.950Z,25.80
2023-04-30T05:36:52.277Z,32.70
2023-04-30T05:39:24.746Z,31.10
2023-04-30T05:41:57.042Z,29.50
2023-04-30T05:44:30.537Z,30.40
2023-04-30T05:47:02.882Z,31.70
2023-04-30T05:49:36.267Z,29.90
2023-04-30T05:52:08.804Z,24.00
2023-04-30T05:54:41.152Z,27.70
2023-04-30T05:57:13.402Z,29.50
2023-04-30T05:59:45.665Z,23.10
2023-04-30T06:02:17.949Z,22.70
2023-04-30T06:04:50.703Z,27.00
2023-04-30T06:07:23.010Z,23.70
2023-04-30T06:09:55.448Z,21.70
2023-04-30T06:12:29.129Z,32.00
2023-04-30T06:15:01.467Z,21.80
2023-04-30T06:17:33.961Z,22.50
2023-04-30T06:20:07.725Z,24.30
2023-04-30T06:22:41.268Z,21.40
2023-04-30T06:25:13.903Z,27.10
2023-04-30T06:27:46.289Z,25.80
2023-04-30T06:30:18.965Z,23.40
2023-04-30T06:32:51.694Z,21.70
2023-04-30T06:35:24.686Z,23.10
2023-04-30T06:37:57.044Z,21.70
2023-04-30T06:40:29.321Z,27.30
2023-04-30T06:43:01.719Z,27.10
2023-04-30T06:45:34.184Z,21.10
2023-04-30T06:48:06.919Z,24.20
2023-04-30T06:50:45.011Z,18.20
2023-04-30T06:53:18.083Z,31.80
2023-04-30T06:55:50.902Z,22.50
2023-04-30T06:58:23.291Z,19.40
2023-04-30T07:00:55.601Z,17.20
2023-04-30T07:03:28.242Z,17.90
2023-04-30T07:06:00.946Z,13.70
2023-04-30T07:08:33.308Z,19.50
2023-04-30T07:11:05.658Z,17.80
2023-04-30T07:13:38.570Z,14.60
2023-04-30T07:16:12.052Z,11.10
2023-04-30T07:18:44.584Z,17.20
2023-04-30T07:21:16.859Z,15.50
2023-04-30T07:23:51.665Z,9.60
2023-04-30T07:26:26.675Z,12.70
2023-04-30T07:28:59.090Z,11.90
2023-04-30T07:31:31.515Z,15.70
2023-04-30T07:34:03.906Z,11.50
2023-04-30T07:36:36.371Z,12.40
2023-04-30T07:39:10.173Z,9.20
2023-04-30T07:41:42.505Z,10.00
2023-04-30T07:44:14.822Z,12.10
2023-04-30T07:46:47.457Z,12.00
2023-04-30T07:49:19.708Z,9.50
2023-04-30T07:51:52.175Z,13.40
2023-04-30T07:54:24.663Z,16.30
2023-04-30T07:56:56.981Z,14.20
2023-04-30T07:59:29.373Z,11.90
2023-04-30T08:02:02.610Z,10.00
2023-04-30T08:04:35.199Z,12.20
2023-04-30T08:07:07.773Z,15.00
2023-04-30T08:09:40.096Z,19.40
2023-04-30T08:12:13.218Z,12.80
2023-04-30T08:14:45.448Z,24.50
2023-04-30T08:17:17.814Z,13.00
2023-04-30T08:19:50.365Z,15.90
2023-04-30T08:22:22.844Z,9.70
2023-04-30T08:24:55.966Z,10.30
2023-04-30T08:27:28.406Z,13.80
2023-04-30T08:30:00.780Z,8.70
2023-04-30T08:32:36.051Z,15.30
2023-04-30T08:35:09.796Z,7.50
2023-04-30T08:37:42.051Z,7.50
2023-04-30T08:40:16.615Z,6.90
2023-04-30T08:42:55.284Z,10.70
2023-04-30T08:45:28.068Z,9.20
2023-04-30T08:48:02.862Z,8.60
2023-04-30T08:50:35.349Z,9.70
2023-04-30T08:53:09.153Z,6.40
2023-04-30T08:55:41.957Z,7.60
2023-04-30T08:58:14.358Z,6.30
2023-04-30T09:00:46.810Z,9.70
2023-04-30T09:03:19.351Z,9.20
2023-04-30T09:05:52.411Z,12.60
2023-04-30T09:08:44.698Z,9.30
2023-04-30T09:11:26.712Z,6.50
2023-04-30T09:14:00.726Z,8.10
2023-04-30T09:16:47.272Z,11.20
2023-04-30T09:19:28.456Z,9.90
2023-04-30T09:22:01.115Z,10.20
2023-04-30T09:24:49.421Z,11.30
2023-04-30T09:27:22.961Z,8.90
2023-04-30T09:29:55.591Z,9.10
2023-04-30T09:32:29.135Z,10.30
2023-04-30T09:35:01.531Z,4.40
2023-04-30T09:37:40.999Z,5.20
2023-04-30T09:40:14.520Z,9.30
2023-04-30T09:43:01.609Z,6.30
2023-04-30T09:45:48.573Z,8.20
2023-04-30T09:48:23.171Z,8.60
2023-04-30T09:50:55.645Z,6.10
2023-04-30T09:53:28.125Z,6.50
2023-04-30T09:56:03.016Z,6.10
2023-04-30T09:58:39.998Z,8.40
2023-04-30T10:01:13.623Z,4.80
2023-04-30T10:03:47.300Z,3.60
2023-04-30T10:06:20.153Z,4.90
2023-04-30T10:08:57.641Z,9.60
2023-04-30T10:11:33.499Z,8.70
2023-04-30T10:14:09.372Z,5.50
2023-04-30T10:16:49.221Z,11.50
2023-04-30T10:19:24.898Z,5.10
2023-04-30T10:21:57.389Z,3.80
2023-04-30T10:24:30.178Z,3.90
2023-04-30T10:27:03.276Z,10.60
2023-04-30T10:29:35.608Z,7.80
2023-04-30T10:32:09.413Z,7.50
2023-04-30T10:34:51.463Z,7.50
2023-04-30T10:37:31.336Z,6.00
2023-04-30T10:40:05.986Z,7.20
2023-04-30T10:42:39.194Z,4.90
2023-04-30T10:45:14.846Z,8.00
2023-04-30T10:47:47.658Z,6.30
2023-04-30T10:50:24.969Z,7.30
2023-04-30T10:53:07.265Z,4.60
2023-04-30T10:55:53.479Z,8.60
2023-04-30T10:58:31.895Z,5.90
2023-04-30T11:01:11.503Z,4.60
2023-04-30T11:04:04.853Z,5.10
2023-04-30T11:06:58.252Z,6.40
2023-04-30T11:09:41.077Z,3.80
2023-04-30T11:12:20.898Z,5.70
2023-04-30T11:14:53.351Z,8.50
2023-04-30T11:17:28.422Z,4.20
2023-04-30T11:20:02.889Z,4.80
2023-04-30T11:22:37.111Z,4.40
2023-04-30T11:25:10.989Z,4.10
2023-04-30T11:27:45.358Z,6.30
2023-04-30T11:30:20.607Z,4.00
2023-04-30T11:32:54.886Z,10.80
2023-04-30T11:35:29.980Z,5.80
2023-04-30T11:38:03.595Z,7.30
2023-04-30T11:40:38.495Z,5.50
2023-04-30T11:43:21.993Z,3.20
2023-04-30T11:46:06.543Z,7.10
2023-04-30T11:48:40.989Z,3.80
2023-04-30T11:51:20.833Z,7.50
2023-04-30T11:53:54.717Z,14.00
2023-04-30T11:56:27.803Z,5.10
2023-04-30T11:59:00.123Z,11.40
2023-04-30T12:01:32.489Z,3.80
2023-04-30T12:04:05.600Z,6.50
2023-04-30T12:06:38.534Z,12.80
2023-04-30T12:09:11.917Z,5.50
2023-04-30T12:11:44.206Z,8.50
2023-04-30T12:14:16.447Z,3.00
2023-04-30T12:16:50.406Z,5.90
2023-04-30T12:19:25.354Z,2.80
2023-04-30T12:21:58.098Z,5.20
2023-04-30T12:24:30.508Z,4.10
2023-04-30T12:27:03.348Z,4.10
2023-04-30T12:29:36.419Z,6.00
2023-04-30T12:32:09.061Z,7.50
2023-04-30T12:34:43.087Z,13.20
2023-04-30T12:37:18.126Z,3.30
2023-04-30T12:39:50.572Z,3.60
2023-04-30T12:42:22.966Z,5.70
2023-04-30T12:44:55.328Z,5.10
2023-04-30T12:47:28.767Z,4.00
2023-04-30T12:50:02.088Z,4.30
2023-04-30T12:52:35.817Z,3.30
2023-04-30T12:55:21.126Z,3.10
2023-04-30T12:58:11.075Z,8.30
2023-04-30T13:00:51.090Z,9.50
2023-04-30T13:03:24.346Z,3.60
2023-04-30T13:05:58.705Z,5.50
2023-04-30T13:08:33.777Z,5.50
2023-04-30T13:11:11.396Z,5.40
2023-04-30T13:13:44.082Z,4.90
2023-04-30T13:16:16.879Z,3.20
2023-04-30T13:18:49.163Z,5.60
2023-04-30T13:21:21.972Z,5.40
2023-04-30T13:23:55.302Z,3.60
2023-04-30T13:26:29.852Z,10.10
2023-04-30T13:29:02.383Z,6.00
2023-04-30T13:31:35.075Z,6.20
2023-04-30T13:34:07.498Z,4.40
2023-04-30T13:36:40.287Z,4.30
2023-04-30T13:39:12.869Z,5.30
2023-04-30T13:41:45.207Z,3.30
2023-04-30T13:44:18.157Z,4.20
2023-04-30T13:46:50.690Z,4.50
2023-04-30T13:49:23.141Z,8.10
2023-04-30T13:51:55.477Z,6.60
2023-04-30T13:54:27.702Z,4.00
2023-04-30T13:57:00.965Z,10.20
2023-04-30T13:59:33.424Z,5.70
2023-04-30T14:02:05.762Z,3.70
2023-04-30T14:04:38.764Z,3.80
2023-04-30T14:07:11.091Z,6.60
2023-04-30T14:09:43.487Z,5.50
2023-04-30T14:12:15.859Z,11.90
2023-04-30T14:14:48.202Z,4.90
2023-04-30T14:17:20.709Z,4.60
2023-04-30T14:19:53.309Z,3.70
2023-04-30T14:22:25.926Z,6.10
2023-04-30T14:24:59.882Z,4.50
2023-04-30T14:27:32.301Z,7.50
2023-04-30T14:30:05.210Z,3.70
2023-04-30T14:32:38.121Z,3.00
2023-04-30T14:35:11.717Z,5.70
2023-04-30T14:37:44.101Z,5.00
2023-04-30T14:40:17.664Z,8.30
2023-04-30T14:42:50.817Z,7.50
2023-04-30T14:45:23.181Z,7.90
2023-04-30T14:47:55.585Z,4.60
2023-04-30T14:50:28.129Z,4.50
2023-04-30T14:53:00.536Z,4.20
2023-04-30T14:55:33.025Z,4.70
2023-04-30T14:58:05.632Z,5.10
2023-04-30T15:00:37.932Z,4.90
2023-04-30T15:03:10.427Z,4.20
2023-04-30T15:05:43.326Z,6.30
2023-04-30T15:08:16.497Z,4.10
2023-04-30T15:10:48.861Z,4.70
2023-04-30T15:13:21.354Z,6.20
2023-04-30T15:15:53.937Z,4.70
2023-04-30T15:18:26.716Z,7.10
2023-04-30T15:20:59.354Z,4.00
2023-04-30T15:23:32.064Z,3.70
2023-04-30T15:26:05.550Z,3.30
2023-04-30T15:28:37.865Z,6.30
2023-04-30T15:31:11.467Z,4.00
2023-04-30T15:33:43.967Z,5.30
2023-04-30T15:36:16.213Z,6.90
2023-04-30T15:38:48.450Z,4.50
2023-04-30T15:41:21.784Z,4.00
2023-04-30T15:43:54.085Z,6.90
2023-04-30T15:46:26.441Z,4.60
2023-04-30T15:48:58.864Z,3.80
2023-04-30T15:51:31.431Z,3.60
2023-04-30T15:54:03.772Z,7.10
2023-04-30T15:56:36.779Z,6.30
2023-04-30T15:59:09.292Z,3.80
2023-04-30T16:01:41.781Z,3.30
2023-04-30T16:04:14.767Z,4.80
2023-04-30T16:06:47.710Z,6.00
2023-04-30T16:09:20.894Z,4.30
2023-04-30T16:11:53.224Z,2.30
2023-04-30T16:14:25.660Z,6.20
2023-04-30T16:16:58.258Z,8.20
2023-04-30T16:19:30.524Z,4.70
2023-04-30T16:22:02.970Z,6.20
2023-04-30T16:24:35.364Z,5.50
2023-04-30T16:27:08.577Z,4.20
2023-04-30T16:29:40.906Z,4.40
2023-04-30T16:32:13.358Z,10.90
2023-04-30T16:34:46.164Z,6.10
2023-04-30T16:37:18.572Z,5.80
2023-04-30T16:39:50.900Z,4.80
2023-04-30T16:42:23.341Z,5.50
2023-04-30T16:44:55.726Z,4.20
2023-04-30T16:47:28.197Z,3.80
2023-04-30T16:50:01.017Z,4.60
2023-04-30T16:52:33.968Z,2.20
2023-04-30T16:55:07.270Z,3.20
2023-04-30T16:57:39.846Z,4.30
2023-04-30T17:00:14.668Z,4.90
2023-04-30T17:02:49.166Z,2.30
2023-04-30T17:05:22.653Z,3.80
2023-04-30T17:07:55.329Z,3.60
2023-04-30T17:10:30.141Z,5.10
2023-04-30T17:13:05.628Z,10.70
2023-04-30T17:18:09.852Z,5.60
2023-04-30T17:20:42.346Z,8.60
2023-04-30T17:23:14.889Z,3.90
2023-04-30T17:25:47.102Z,4.30
2023-04-30T17:28:19.497Z,3.90
2023-04-30T17:30:52.675Z,5.30
2023-04-30T17:33:26.772Z,3.00
2023-04-30T17:35:59.925Z,3.10
2023-04-30T17:38:32.305Z,4.60
2023-04-30T17:41:05.294Z,4.80
2023-04-30T17:43:37.562Z,5.50
2023-04-30T17:46:09.965Z,4.70
2023-04-30T17:48:42.413Z,4.40
2023-04-30T17:51:14.755Z,5.60
2023-04-30T17:53:47.117Z,6.70
2023-04-30T17:56:20.524Z,6.80
2023-04-30T17:58:53.045Z,5.40
2023-04-30T18:01:26.141Z,5.10
2023-04-30T18:04:00.468Z,6.20
2023-04-30T18:06:32.935Z,9.40
2023-04-30T18:09:05.332Z,6.30
2023-04-30T18:11:37.615Z,4.20
2023-04-30T18:14:10.107Z,9.10
2023-04-30T18:16:42.580Z,6.10
2023-04-30T18:19:15.134Z,6.50
2023-04-30T18:21:47.385Z,12.60
2023-04-30T18:24:21.155Z,6.40
2023-04-30T18:26:53.393Z,7.30
2023-04-30T18:29:26.015Z,8.90
2023-04-30T18:31:58.512Z,5.00
2023-04-30T18:34:30.998Z,6.00
2023-04-30T18:37:03.248Z,7.40
2023-04-30T18:39:35.969Z,4.60
2023-04-30T18:42:09.518Z,5.90
2023-04-30T18:44:41.918Z,4.30
2023-04-30T18:47:14.308Z,4.50
2023-04-30T18:49:47.061Z,4.80
2023-04-30T18:52:19.381Z,5.00
2023-04-30T18:54:52.210Z,6.80
2023-04-30T18:57:24.745Z,6.90
2023-04-30T18:59:57.630Z,7.50
2023-04-30T19:02:30.377Z,5.40
2023-04-30T19:05:03.853Z,12.20
2023-04-30T19:07:36.241Z,6.40
2023-04-30T19:10:10.097Z,6.20
2023-04-30T19:12:44.078Z,8.50
2023-04-30T19:15:18.020Z,3.70
2023-04-30T19:17:50.442Z,6.30
2023-04-30T19:20:22.843Z,6.50
2023-04-30T19:22:55.270Z,4.10
2023-04-30T19:25:27.682Z,3.90
2023-04-30T19:27:59.970Z,3.20
2023-04-30T19:30:32.394Z,4.60
2023-04-30T19:33:05.613Z,3.10
2023-04-30T19:35:38.819Z,3.60
2023-04-30T19:38:11.082Z,2.40
2023-04-30T19:40:49.184Z,8.40
2023-04-30T19:43:22.740Z,5.60
2023-04-30T19:45:56.448Z,2.20
2023-04-30T19:48:28.983Z,3.10
2023-04-30T19:51:03.755Z,2.30
2023-04-30T19:53:36.189Z,4.90
2023-04-30T19:56:09.420Z,2.70
2023-04-30T19:58:41.941Z,2.60
2023-04-30T20:01:14.881Z,3.10
2023-04-30T20:03:47.205Z,2.40
2023-04-30T20:06:20.626Z,3.50
2023-04-30T20:08:53.034Z,4.20
2023-04-30T20:11:25.629Z,2.80
2023-04-30T20:13:58.773Z,2.50
2023-04-30T20:16:31.559Z,4.00
2023-04-30T20:19:04.403Z,3.20
2023-04-30T20:21:36.783Z,4.40
2023-04-30T20:24:11.088Z,2.70
2023-04-30T20:26:43.562Z,3.30
2023-04-30T20:29:15.991Z,3.00
2023-04-30T20:31:48.378Z,3.60
2023-04-30T20:34:20.750Z,4.90
2023-04-30T20:36:53.073Z,2.30
2023-04-30T20:39:25.755Z,6.70
2023-04-30T20:41:59.255Z,6.90
2023-04-30T20:44:31.683Z,3.70
2023-04-30T20:47:05.548Z,7.60
2023-04-30T20:49:38.628Z,4.30
2023-04-30T20:52:12.307Z,2.70
2023-04-30T20:54:45.110Z,2.50
2023-04-30T20:57:17.452Z,5.20
2023-04-30T20:59:49.793Z,4.30
2023-04-30T21:02:22.110Z,5.20
2023-04-30T21:04:54.581Z,3.30
2023-04-30T21:07:27.706Z,3.90
2023-04-30T21:10:01.063Z,5.50
2023-04-30T21:12:33.838Z,3.10
2023-04-30T21:15:06.791Z,3.70
2023-04-30T21:17:39.216Z,3.20
2023-04-30T21:20:13.825Z,4.50
2023-04-30T21:22:46.433Z,4.40
2023-04-30T21:25:19.323Z,3.70
2023-04-30T21:27:52.390Z,3.20
2023-04-30T21:30:26.585Z,2.40
2023-04-30T21:32:59.394Z,3.40
2023-04-30T21:35:34.188Z,3.80
2023-04-30T21:38:06.802Z,4.70
2023-04-30T21:40:39.083Z,3.70
2023-04-30T21:43:11.338Z,4.70
2023-04-30T21:45:43.706Z,2.90
2023-04-30T21:48:16.012Z,3.90
2023-04-30T21:50:49.735Z,4.00
2023-04-30T21:53:22.228Z,3.80
2023-04-30T21:55:54.575Z,5.50
2023-04-30T21:58:27.029Z,4.50
2023-04-30T22:00:59.344Z,3.80
2023-04-30T22:03:31.875Z,5.60
2023-04-30T22:06:04.594Z,3.70
2023-04-30T22:08:37.009Z,3.90
2023-04-30T22:11:09.388Z,3.60
2023-04-30T22:13:41.949Z,7.60
2023-04-30T22:16:14.278Z,7.70
2023-04-30T22:18:46.644Z,5.30
2023-04-30T22:21:19.022Z,6.00
2023-04-30T22:23:51.279Z,3.60
2023-04-30T22:26:25.323Z,7.30
2023-04-30T22:28:58.005Z,4.50
2023-04-30T22:31:30.680Z,7.30
2023-04-30T22:34:04.010Z,11.80
2023-04-30T22:36:36.189Z,5.40
2023-04-30T22:39:08.645Z,6.30
2023-04-30T22:41:41.088Z,5.40
2023-04-30T22:44:13.391Z,6.70
2023-04-30T22:46:46.257Z,7.10
2023-04-30T22:49:27.596Z,8.20
2023-04-30T22:52:04.524Z,7.50
2023-04-30T22:54:37.084Z,5.60
2023-04-30T22:57:09.293Z,6.50
2023-04-30T22:59:41.751Z,8.90
2023-04-30T23:02:14.736Z,7.40
2023-04-30T23:04:46.974Z,6.70
2023-04-30T23:07:19.434Z,5.80
2023-04-30T23:09:51.726Z,7.10
2023-04-30T23:12:24.036Z,5.60
2023-04-30T23:14:56.296Z,4.80
2023-04-30T23:17:28.719Z,4.30
2023-04-30T23:20:01.089Z,5.30
2023-04-30T23:22:33.633Z,7.30
2023-04-30T23:25:07.113Z,5.60
2023-04-30T23:27:39.511Z,7.10
2023-04-30T23:30:13.614Z,7.20
2023-04-30T23:32:46.031Z,5.50
2023-04-30T23:35:18.652Z,4.90
2023-04-30T23:37:51.577Z,9.50
2023-04-30T23:40:24.038Z,4.30
2023-04-30T23:42:56.361Z,9.50
2023-04-30T23:45:28.652Z,7.80
2023-04-30T23:48:01.359Z,3.30
2023-04-30T23:50:33.918Z,4.20
2023-04-30T23:53:06.304Z,6.20
2023-04-30T23:55:41.680Z,7.40
2023-04-30T23:58:14.092Z,4.10
